Agricola, Mississippi
Current Conditions -  °F | °C
As of 5:56 AM on Monday 20 Oct 2014 (Local Time) from KMOB Reporting Station
Few Clouds Few Clouds  
Wind Chill: 51°   Ceiling: Unl
Heat Index: 51°   Visibility: 7mi
Dew Point: 48°   Wind: 3mph
Humidity: 89%   Direction: 40°NE
Pressure: 30.05"   Gusts: NA
Location:  30.8443°N, 88.5703°W
Report Text: KMOB 201056Z 04003KT 7SM FEW250 11/09 A3005 RMK AO2 SLP175 T01060089
Loading
Personal Weather Stations






























Interactive Weather Map New forecast layout! Learn more

10-Day Weather Forecast

Advertisements
Track Severe Weather on mobile